createdAt,value
2017-01-10T00:01:00.588Z,97.21
2017-01-10T00:02:06.744Z,97.21
2017-01-10T00:03:10.943Z,97.21
2017-01-10T00:04:16.295Z,96.73
2017-01-10T00:05:22.466Z,97.02
2017-01-10T00:06:28.767Z,96.88
2017-01-10T00:07:34.900Z,96.83
2017-01-10T00:08:41.061Z,96.83
2017-01-10T00:09:47.234Z,97.11
2017-01-10T00:10:53.396Z,96.73
2017-01-10T00:11:59.566Z,96.88
2017-01-10T00:13:05.775Z,97.02
2017-01-10T00:14:11.941Z,97.02
2017-01-10T00:15:17.141Z,96.64
2017-01-10T00:16:22.342Z,97.16
2017-01-10T00:17:28.514Z,97.02
2017-01-10T00:18:34.673Z,97.11
2017-01-10T00:19:39.278Z,97.11
2017-01-10T00:20:45.410Z,97.21
2017-01-10T00:21:51.578Z,96.73
2017-01-10T00:22:55.802Z,97.02
2017-01-10T00:24:01.018Z,96.97
2017-01-10T00:25:07.181Z,97.11
2017-01-10T00:26:13.349Z,97.11
2017-01-10T00:27:18.545Z,96.73
2017-01-10T00:28:24.818Z,97.16
2017-01-10T00:29:30.951Z,97.35
2017-01-10T00:30:36.150Z,97.11
2017-01-10T00:31:41.358Z,96.92
2017-01-10T00:32:46.564Z,97.02
2017-01-10T00:33:52.725Z,96.92
2017-01-10T00:34:57.927Z,97.21
2017-01-10T00:36:04.093Z,96.97
2017-01-10T00:37:10.262Z,96.73
2017-01-10T00:38:16.430Z,96.73
2017-01-10T00:39:22.754Z,96.83
2017-01-10T00:40:28.921Z,96.45
2017-01-10T00:41:35.079Z,96.73
2017-01-10T00:42:41.237Z,96.92
2017-01-10T00:43:46.430Z,97.11
2017-01-10T00:44:52.597Z,97.11
2017-01-10T00:45:58.766Z,96.83
2017-01-10T00:47:03.960Z,97.02
2017-01-10T00:48:09.255Z,97.21
2017-01-10T00:49:14.454Z,97.3
2017-01-10T00:50:20.622Z,97.3
2017-01-10T00:51:24.820Z,97.02
2017-01-10T00:52:28.063Z,97.4
2017-01-10T00:53:34.270Z,97.3
2017-01-10T00:54:40.440Z,97.68
2017-01-10T00:55:46.598Z,97.78
2017-01-10T00:56:51.797Z,98.06
2017-01-10T00:57:56.032Z,98.06
2017-01-10T00:59:02.196Z,97.78
2017-01-10T01:00:08.375Z,97.49
2017-01-10T01:01:13.545Z,98.25
2017-01-10T01:02:19.710Z,98.16
2017-01-10T01:03:25.880Z,97.97
2017-01-10T01:04:31.082Z,97.97
2017-01-10T01:05:37.249Z,97.78
2017-01-10T01:06:43.414Z,97.49
2017-01-10T01:07:48.742Z,98.16
2017-01-10T01:08:53.937Z,97.11
2017-01-10T01:09:58.161Z,97.68
2017-01-10T01:11:03.411Z,97.78
2017-01-10T01:12:09.579Z,97.78
2017-01-10T01:13:15.792Z,97.11
2017-01-10T01:14:20.962Z,97.21
2017-01-10T01:15:24.194Z,97.21
2017-01-10T01:16:30.359Z,96.92
2017-01-10T01:17:36.527Z,97.21
2017-01-10T01:18:42.720Z,97.11
2017-01-10T01:19:48.008Z,97.78
2017-01-10T01:20:53.215Z,97.11
2017-01-10T01:21:59.465Z,97.3
2017-01-10T01:23:04.664Z,97.21
2017-01-10T01:24:10.827Z,97.07
2017-01-10T01:25:16.990Z,97.3
2017-01-10T01:26:23.182Z,97.3
2017-01-10T01:27:29.344Z,97.21
2017-01-10T01:28:35.619Z,97.3
2017-01-10T01:29:41.786Z,97.4
2017-01-10T01:30:46.954Z,97.11
2017-01-10T01:31:52.154Z,97.02
2017-01-10T01:32:58.323Z,97.11
2017-01-10T01:34:03.588Z,97.26
2017-01-10T01:35:08.782Z,97.11
2017-01-10T01:36:13.959Z,96.92
2017-01-10T01:37:20.124Z,96.92
2017-01-10T01:38:26.301Z,97.16
2017-01-10T01:39:32.467Z,97.21
2017-01-10T01:40:37.660Z,97.4
2017-01-10T01:41:42.914Z,97.26
2017-01-10T01:42:49.032Z,96.73
2017-01-10T01:43:55.195Z,97.3
2017-01-10T01:44:58.492Z,97.02
2017-01-10T01:46:04.639Z,97.11
2017-01-10T01:47:10.802Z,96.73
2017-01-10T01:48:17.020Z,96.73
2017-01-10T01:49:23.189Z,97.16
2017-01-10T01:50:28.390Z,96.73
2017-01-10T01:51:34.550Z,97.11
2017-01-10T01:52:39.753Z,96.92
2017-01-10T01:53:45.922Z,96.92
2017-01-10T01:54:52.087Z,96.88
2017-01-10T01:55:57.279Z,97.07
2017-01-10T01:57:02.486Z,97.21
2017-01-10T01:58:08.661Z,96.73
2017-01-10T01:59:14.899Z,96.73
2017-01-10T02:00:21.065Z,96.36
2017-01-10T02:01:27.306Z,96.83
2017-01-10T02:02:33.480Z,96.64
2017-01-10T02:03:39.648Z,96.55
2017-01-10T02:04:44.850Z,96.55
2017-01-10T02:05:49.083Z,96.64
2017-01-10T02:06:54.295Z,96.69
2017-01-10T02:07:59.507Z,96.73
2017-01-10T02:09:04.708Z,96.26
2017-01-10T02:10:09.896Z,96.59
2017-01-10T02:11:15.100Z,96.73
2017-01-10T02:12:21.272Z,96.17
2017-01-10T02:13:26.514Z,96.12
2017-01-10T02:14:31.778Z,96.07
2017-01-10T02:15:37.113Z,96.17
2017-01-10T02:16:43.249Z,96.07
2017-01-10T02:17:48.439Z,96.17
2017-01-10T02:18:53.640Z,96.17
2017-01-10T02:19:59.804Z,95.79
2017-01-10T02:21:04.026Z,96.17
2017-01-10T02:22:10.204Z,96.07
2017-01-10T02:23:16.377Z,96.69
2017-01-10T02:24:22.533Z,96.26
2017-01-10T02:25:28.695Z,95.69
2017-01-10T02:26:34.890Z,96.07
2017-01-10T02:27:39.084Z,95.79
2017-01-10T02:28:45.314Z,95.84
2017-01-10T02:29:51.478Z,95.65
2017-01-10T02:30:57.647Z,95.41
2017-01-10T02:32:02.819Z,95.36
2017-01-10T02:33:08.024Z,95.26
2017-01-10T02:34:14.186Z,94.98
2017-01-10T02:35:19.433Z,95.41
2017-01-10T02:36:24.565Z,95.74
2017-01-10T02:37:30.725Z,95.45
2017-01-10T02:38:35.933Z,95.22
2017-01-10T02:39:42.155Z,95.26
2017-01-10T02:40:48.325Z,95.31
2017-01-10T02:41:54.489Z,95.45
2017-01-10T02:42:59.702Z,95.55
2017-01-10T02:44:04.925Z,95.17
2017-01-10T02:45:10.125Z,95.6
2017-01-10T02:46:16.394Z,95.41
2017-01-10T02:47:21.636Z,95.5
2017-01-10T02:48:27.786Z,95.41
2017-01-10T02:49:33.948Z,96.55
2017-01-10T02:50:40.111Z,96.17
2017-01-10T02:51:45.310Z,95.98
2017-01-10T02:52:51.475Z,96.07
2017-01-10T02:53:55.708Z,95.5
2017-01-10T02:55:01.879Z,95.5
2017-01-10T02:56:08.043Z,95.31
2017-01-10T02:57:13.228Z,95.31
2017-01-10T02:58:19.390Z,96.07
2017-01-10T02:59:24.588Z,95.88
2017-01-10T03:00:29.759Z,95.88
2017-01-10T03:01:35.920Z,96.12
2017-01-10T03:02:42.084Z,95.88
2017-01-10T03:03:47.281Z,95.5
2017-01-10T03:04:53.441Z,95.69
2017-01-10T03:05:56.718Z,95.69
2017-01-10T03:07:02.925Z,95.31
2017-01-10T03:08:08.077Z,95.69
2017-01-10T03:09:13.279Z,95.5
2017-01-10T03:10:18.470Z,96.07
2017-01-10T03:11:24.684Z,95.88
2017-01-10T03:12:28.893Z,95.88
2017-01-10T03:13:34.092Z,95.5
2017-01-10T03:14:39.296Z,95.88
2017-01-10T03:15:45.468Z,96.07
2017-01-10T03:16:51.658Z,96.17
2017-01-10T03:17:57.822Z,96.17
2017-01-10T03:19:03.006Z,95.6
2017-01-10T03:20:08.198Z,95.6
2017-01-10T03:21:12.429Z,95.5
2017-01-10T03:22:18.589Z,95.6
2017-01-10T03:23:24.852Z,95.41
2017-01-10T03:24:29.081Z,95.41
2017-01-10T03:25:33.310Z,95.12
2017-01-10T03:26:39.487Z,95.5
2017-01-10T03:27:45.654Z,95.22
2017-01-10T03:28:50.950Z,95.41
2017-01-10T03:29:55.181Z,95.5
2017-01-10T03:31:00.377Z,95.69
2017-01-10T03:32:05.547Z,95.41
2017-01-10T03:33:30.917Z,95.41
2017-01-10T03:34:36.107Z,95.69
2017-01-10T03:35:42.277Z,95.41
2017-01-10T03:36:48.442Z,95.12
2017-01-10T03:37:54.604Z,95.31
2017-01-10T03:39:00.771Z,95.22
2017-01-10T03:40:05.967Z,95.22
2017-01-10T03:41:11.161Z,95.41
2017-01-10T03:42:16.421Z,95.6
2017-01-10T03:43:22.536Z,95.22
2017-01-10T03:44:28.706Z,95.88
2017-01-10T03:45:34.867Z,95.69
2017-01-10T03:46:41.024Z,95.6
2017-01-10T03:47:46.230Z,95.41
2017-01-10T03:48:51.422Z,95.79
2017-01-10T03:49:57.696Z,95.88
2017-01-10T03:51:02.918Z,96.07
2017-01-10T03:52:09.053Z,96.36
2017-01-10T03:53:15.211Z,96.07
2017-01-10T03:54:20.419Z,96.26
2017-01-10T03:55:25.596Z,96.26
2017-01-10T03:56:30.837Z,96.45
2017-01-10T03:57:35.998Z,95.88
2017-01-10T03:58:41.195Z,96.07
2017-01-10T03:59:47.361Z,96.36
2017-01-10T04:01:48.305Z,95.88
2017-01-10T04:02:54.502Z,96.17
2017-01-10T04:03:58.760Z,96.17
2017-01-10T04:05:05.014Z,96.17
2017-01-10T04:06:11.132Z,96.17
2017-01-10T04:07:15.341Z,95.69
2017-01-10T04:08:21.533Z,95.31
2017-01-10T04:09:26.791Z,96.36
2017-01-10T04:10:31.994Z,96.26
2017-01-10T04:11:38.160Z,96.36
2017-01-10T04:12:44.331Z,96.17
2017-01-10T04:13:50.493Z,96.07
2017-01-10T04:14:55.692Z,96.07
2017-01-10T04:16:01.844Z,95.5
2017-01-10T04:17:06.073Z,95.79
2017-01-10T04:18:12.237Z,95.69
2017-01-10T04:19:18.403Z,96.07
2017-01-10T04:20:24.570Z,95.98
2017-01-10T04:21:30.740Z,96.07
2017-01-10T04:22:36.935Z,95.88
2017-01-10T04:23:43.109Z,95.79
2017-01-10T04:24:47.315Z,96.07
2017-01-10T04:25:51.549Z,96.64
2017-01-10T04:26:56.799Z,96.64
2017-01-10T04:28:02.969Z,96.55
2017-01-10T04:29:08.268Z,96.55
2017-01-10T04:30:14.432Z,96.83
2017-01-10T04:31:20.600Z,96.36
2017-01-10T04:32:26.765Z,96.45
2017-01-10T04:33:32.923Z,96.73
2017-01-10T04:34:39.096Z,96.36
2017-01-10T04:35:45.334Z,96.83
2017-01-10T04:36:51.496Z,96.73
2017-01-10T04:37:54.869Z,96.36
2017-01-10T04:39:00.040Z,96.55
2017-01-10T04:40:05.245Z,96.36
2017-01-10T04:41:11.407Z,96.73
2017-01-10T04:42:16.597Z,96.73
2017-01-10T04:43:22.798Z,97.21
2017-01-10T04:44:27.969Z,97.11
2017-01-10T04:45:34.143Z,97.3
2017-01-10T04:46:37.399Z,97.21
2017-01-10T04:47:42.602Z,96.92
2017-01-10T04:48:48.800Z,97.11
2017-01-10T04:49:54.975Z,96.92
2017-01-10T04:51:00.140Z,96.83
2017-01-10T04:52:05.334Z,97.21
2017-01-10T04:53:11.501Z,97.02
2017-01-10T04:54:16.705Z,97.3
2017-01-10T04:55:21.925Z,97.02
2017-01-10T04:56:28.088Z,96.73
2017-01-10T04:57:34.249Z,96.92
2017-01-10T04:58:40.450Z,96.73
2017-01-10T04:59:46.596Z,96.55
2017-01-10T05:00:52.757Z,96.83
2017-01-10T05:01:58.275Z,97.21
2017-01-10T05:03:03.470Z,97.11
2017-01-10T05:04:09.630Z,97.02
2017-01-10T05:05:15.802Z,97.02
2017-01-10T05:06:20.994Z,97.02
2017-01-10T05:07:27.155Z,97.21
2017-01-10T05:08:32.346Z,97.21
2017-01-10T05:09:38.519Z,97.02
2017-01-10T05:10:43.710Z,97.11
2017-01-10T05:11:48.914Z,97.11
2017-01-10T05:12:55.073Z,97.3
2017-01-10T05:14:01.239Z,97.11
2017-01-10T05:15:07.404Z,97.11
2017-01-10T05:16:12.700Z,97.3
2017-01-10T05:17:17.900Z,97.4
2017-01-10T05:18:24.068Z,96.83
2017-01-10T05:19:29.259Z,96.92
2017-01-10T05:20:35.419Z,96.92
2017-01-10T05:21:41.589Z,96.45
2017-01-10T05:22:47.752Z,96.73
2017-01-10T05:23:53.920Z,96.73
2017-01-10T05:25:00.090Z,96.45
2017-01-10T05:26:05.287Z,96.73
2017-01-10T05:27:10.448Z,96.73
2017-01-10T05:28:16.615Z,96.73
2017-01-10T05:29:22.773Z,96.73
2017-01-10T05:30:28.043Z,97.02
2017-01-10T05:31:34.214Z,97.4
2017-01-10T05:32:40.380Z,96.92
2017-01-10T05:33:45.119Z,97.11
2017-01-10T05:34:51.283Z,96.83
2017-01-10T05:35:57.435Z,97.11
2017-01-10T05:37:02.636Z,97.11
2017-01-10T05:38:08.859Z,97.11
2017-01-10T05:39:15.019Z,97.11
2017-01-10T05:40:21.265Z,97.21
2017-01-10T05:41:26.443Z,97.21
2017-01-10T05:42:32.606Z,97.21
2017-01-10T05:43:36.805Z,96.55
2017-01-10T05:44:43.071Z,97.3
2017-01-10T05:45:47.378Z,97.02
2017-01-10T05:46:53.562Z,97.02
2017-01-10T05:47:59.723Z,97.02
2017-01-10T05:49:05.888Z,96.92
2017-01-10T05:50:12.067Z,97.11
2017-01-10T05:51:18.232Z,97.21
2017-01-10T05:52:23.434Z,97.11
2017-01-10T05:53:29.614Z,96.92
2017-01-10T05:54:35.015Z,97.3
2017-01-10T05:55:40.213Z,97.21
2017-01-10T05:56:46.379Z,97.21
2017-01-10T05:57:50.585Z,96.73
2017-01-10T05:58:56.748Z,96.73
2017-01-10T06:00:02.922Z,96.83
2017-01-10T06:01:09.108Z,97.02
2017-01-10T06:02:14.299Z,97.21
2017-01-10T06:03:19.505Z,97.21
2017-01-10T06:04:24.731Z,97.3
2017-01-10T06:05:30.918Z,97.11
2017-01-10T06:06:37.083Z,96.55
2017-01-10T06:07:43.324Z,96.92
2017-01-10T06:08:48.525Z,96.55
2017-01-10T06:09:54.689Z,96.92
2017-01-10T06:11:00.863Z,97.02
2017-01-10T06:12:07.042Z,97.11
2017-01-10T06:13:13.205Z,97.11
2017-01-10T06:14:18.411Z,96.83
2017-01-10T06:15:22.637Z,96.92
2017-01-10T06:16:27.828Z,96.64
2017-01-10T06:17:34.002Z,96.83
2017-01-10T06:18:40.205Z,96.64
2017-01-10T06:19:46.333Z,96.36
2017-01-10T06:20:51.653Z,96.36
2017-01-10T06:21:56.956Z,96.17
2017-01-10T06:23:02.143Z,95.98
2017-01-10T06:24:07.343Z,96.36
2017-01-10T06:25:13.503Z,96.55
2017-01-10T06:26:19.664Z,96.36
2017-01-10T06:27:25.838Z,96.83
2017-01-10T06:28:32.003Z,96.73
2017-01-10T06:29:37.204Z,96.55
2017-01-10T06:30:42.401Z,96.55
2017-01-10T06:31:48.599Z,96.17
2017-01-10T06:32:54.467Z,96.26
2017-01-10T06:34:00.634Z,96.17
2017-01-10T06:35:05.830Z,96.73
2017-01-10T06:36:11.021Z,96.64
2017-01-10T06:37:17.182Z,96.64
2017-01-10T06:38:23.405Z,96.64
2017-01-10T06:39:29.527Z,96.36
2017-01-10T06:40:35.694Z,96.45
2017-01-10T06:41:41.863Z,96.73
2017-01-10T06:42:47.113Z,96.73
2017-01-10T06:43:53.284Z,96.73
2017-01-10T06:44:59.514Z,96.55
2017-01-10T06:46:05.679Z,96.73
2017-01-10T06:47:11.844Z,96.73
2017-01-10T06:48:17.092Z,96.45
2017-01-10T06:49:22.293Z,96.73
2017-01-10T06:50:28.540Z,96.55
2017-01-10T06:51:34.710Z,96.83
2017-01-10T06:52:40.985Z,97.02
2017-01-10T06:53:45.763Z,97.02
2017-01-10T06:54:50.974Z,96.73
2017-01-10T06:55:55.171Z,96.73
2017-01-10T06:56:58.511Z,96.73
2017-01-10T06:58:04.680Z,96.73
2017-01-10T06:59:10.849Z,96.17
2017-01-10T07:00:16.044Z,96.26
2017-01-10T07:01:21.252Z,96.73
2017-01-10T07:02:26.449Z,96.73
2017-01-10T07:03:31.675Z,96.83
2017-01-10T07:04:36.864Z,97.02
2017-01-10T07:05:43.007Z,97.02
2017-01-10T07:06:48.168Z,96.92
2017-01-10T07:07:53.473Z,96.73
2017-01-10T07:08:59.627Z,96.92
2017-01-10T07:10:04.990Z,97.16
2017-01-10T07:11:09.250Z,96.73
2017-01-10T07:12:13.468Z,96.83
2017-01-10T07:13:19.623Z,96.73
2017-01-10T07:14:25.818Z,96.83
2017-01-10T07:15:31.985Z,96.36
2017-01-10T07:16:37.187Z,96.83
2017-01-10T07:17:43.378Z,96.36
2017-01-10T07:18:49.553Z,96.83
2017-01-10T07:19:55.709Z,96.5
2017-01-10T07:21:01.644Z,96.31
2017-01-10T07:22:05.872Z,96.5
2017-01-10T07:23:12.032Z,96.31
2017-01-10T07:24:18.202Z,96.83
2017-01-10T07:25:23.417Z,97.11
2017-01-10T07:26:28.609Z,96.97
2017-01-10T07:27:34.779Z,97.3
2017-01-10T07:28:41.036Z,97.4
2017-01-10T07:29:47.225Z,97.06
2017-01-10T07:30:53.382Z,97.11
2017-01-10T07:31:59.538Z,97.3
2017-01-10T07:33:05.712Z,97.11
2017-01-10T07:34:11.876Z,97.21
2017-01-10T07:35:18.104Z,97.11
2017-01-10T07:36:24.271Z,97.11
2017-01-10T07:37:30.442Z,97.11
2017-01-10T07:38:36.662Z,96.83
2017-01-10T07:39:42.825Z,97.11
2017-01-10T07:40:48.993Z,96.92
2017-01-10T07:41:55.192Z,97.11
2017-01-10T07:43:01.334Z,97.3
2017-01-10T07:44:07.500Z,97.3
2017-01-10T07:45:13.676Z,97.4
2017-01-10T07:46:19.838Z,97.3
2017-01-10T07:47:25.396Z,97.3
2017-01-10T07:48:30.569Z,97.3
2017-01-10T07:49:36.736Z,97.3
2017-01-10T07:50:40.978Z,97.78
2017-01-10T07:51:46.166Z,97.87
2017-01-10T07:52:52.339Z,97.78
2017-01-10T07:53:55.605Z,97.68
2017-01-10T07:55:01.768Z,97.97
2017-01-10T07:56:07.958Z,97.49
2017-01-10T07:57:13.764Z,98.16
2017-01-10T07:58:18.936Z,98.06
2017-01-10T07:59:25.099Z,97.78
2017-01-10T08:00:30.301Z,98.06
2017-01-10T08:01:36.462Z,97.87
2017-01-10T08:02:41.663Z,97.87
2017-01-10T08:03:47.925Z,97.87
2017-01-10T08:04:54.087Z,97.87
2017-01-10T08:06:00.264Z,97.97
2017-01-10T08:07:06.431Z,97.59
2017-01-10T08:08:12.633Z,97.87
2017-01-10T08:09:18.767Z,98.06
2017-01-10T08:10:23.965Z,97.68
2017-01-10T08:11:30.131Z,97.59
2017-01-10T08:12:35.328Z,97.59
2017-01-10T08:13:41.599Z,97.78
2017-01-10T08:14:46.902Z,97.78
2017-01-10T08:15:53.048Z,97.97
2017-01-10T08:16:58.244Z,98.06
2017-01-10T08:18:04.439Z,98.16
2017-01-10T08:19:09.644Z,98.16
2017-01-10T08:20:15.813Z,97.87
2017-01-10T08:21:21.666Z,97.97
2017-01-10T08:22:24.929Z,97.49
2017-01-10T08:23:31.106Z,97.97
2017-01-10T08:24:37.267Z,97.78
2017-01-10T08:25:42.460Z,97.68
2017-01-10T08:26:48.625Z,97.59
2017-01-10T08:27:54.946Z,97.78
2017-01-10T08:29:00.145Z,97.68
2017-01-10T08:30:06.312Z,97.59
2017-01-10T08:31:11.965Z,97.49
2017-01-10T08:32:18.126Z,98.44
2017-01-10T08:33:24.325Z,97.49
2017-01-10T08:34:30.485Z,97.68
2017-01-10T08:35:36.643Z,97.59
2017-01-10T08:36:41.846Z,97.78
2017-01-10T08:37:47.068Z,98.25
2017-01-10T08:38:52.259Z,97.78
2017-01-10T08:39:58.518Z,97.49
2017-01-10T08:41:04.314Z,97.59
2017-01-10T08:42:10.489Z,97.78
2017-01-10T08:43:16.653Z,97.68
2017-01-10T08:44:22.874Z,98.54
2017-01-10T08:45:29.038Z,97.87
2017-01-10T08:46:35.220Z,97.78
2017-01-10T08:47:41.376Z,98.16
2017-01-10T08:48:46.575Z,98.35
2017-01-10T08:49:51.776Z,97.4
2017-01-10T08:50:56.948Z,97.68
2017-01-10T08:52:03.155Z,97.78
2017-01-10T08:53:07.311Z,97.87
2017-01-10T08:54:13.483Z,97.87
2017-01-10T08:55:19.645Z,98.35
2017-01-10T08:56:23.847Z,98.06
2017-01-10T08:57:28.079Z,98.35
2017-01-10T08:58:33.286Z,98.16
2017-01-10T08:59:38.481Z,98.25
2017-01-10T09:00:43.679Z,98.06
2017-01-10T09:01:49.851Z,98.11
2017-01-10T09:02:54.082Z,98.21
2017-01-10T09:04:00.256Z,98.11
2017-01-10T09:05:06.450Z,97.92
2017-01-10T09:06:12.585Z,98.16
2017-01-10T09:07:18.798Z,98.25
2017-01-10T09:08:23.967Z,98.21
2017-01-10T09:09:29.162Z,98.21
2017-01-10T09:10:35.342Z,98.11
2017-01-10T09:11:41.506Z,98.11
2017-01-10T09:12:46.726Z,98.25
2017-01-10T09:13:52.890Z,98.3
2017-01-10T09:14:59.065Z,98.11
2017-01-10T09:16:04.267Z,98.02
2017-01-10T09:17:10.430Z,97.83
2017-01-10T09:18:15.626Z,98.49
2017-01-10T09:19:21.825Z,98.39
2017-01-10T09:20:27.983Z,97.92
2017-01-10T09:21:33.183Z,98.3
2017-01-10T09:22:39.357Z,98.21
2017-01-10T09:23:45.619Z,98.3
2017-01-10T09:24:51.785Z,98.3
2017-01-10T09:25:55.997Z,97.92
2017-01-10T09:27:02.240Z,97.64
2017-01-10T09:28:07.437Z,97.92
2017-01-10T09:29:12.687Z,97.83
2017-01-10T09:30:18.864Z,97.73
2017-01-10T09:31:25.045Z,97.92
2017-01-10T09:32:30.243Z,98.02
2017-01-10T09:33:36.414Z,97.83
2017-01-10T09:34:39.703Z,97.83
2017-01-10T09:35:45.868Z,97.83
2017-01-10T09:36:52.041Z,97.83
2017-01-10T09:37:57.576Z,97.73
2017-01-10T09:39:00.811Z,98.02
2017-01-10T09:40:07.031Z,97.26
2017-01-10T09:41:13.195Z,97.92
2017-01-10T09:42:19.318Z,97.35
2017-01-10T09:43:25.482Z,98.02
2017-01-10T09:44:31.682Z,97.83
2017-01-10T09:45:37.852Z,98.02
2017-01-10T09:46:43.007Z,97.54
2017-01-10T09:47:46.253Z,97.83
2017-01-10T09:48:51.422Z,97.73
2017-01-10T09:49:56.687Z,97.64
2017-01-10T09:51:02.822Z,97.92
2017-01-10T09:52:08.029Z,97.83
2017-01-10T09:53:13.226Z,97.92
2017-01-10T09:54:17.462Z,97.92
2017-01-10T09:55:21.692Z,97.21
2017-01-10T09:56:27.869Z,97.21
2017-01-10T09:57:33.070Z,97.4
2017-01-10T09:58:39.243Z,97.02
2017-01-10T09:59:45.410Z,97.31
2017-01-10T10:00:50.611Z,97.02
2017-01-10T10:01:56.819Z,96.92
2017-01-10T10:03:02.245Z,96.92
2017-01-10T10:04:08.463Z,96.45
2017-01-10T10:05:13.647Z,96.55
2017-01-10T10:06:19.860Z,95.98
2017-01-10T10:07:25.997Z,96.36
2017-01-10T10:08:32.156Z,96.26
2017-01-10T10:09:37.366Z,96.17
2017-01-10T10:10:42.575Z,96.45
2017-01-10T10:11:48.778Z,96.26
2017-01-10T10:12:54.920Z,96.17
2017-01-10T10:14:01.092Z,96.08
2017-01-10T10:15:06.284Z,96.17
2017-01-10T10:16:11.805Z,95.69
2017-01-10T10:17:16.995Z,95.79
2017-01-10T10:18:22.199Z,95.79
2017-01-10T10:19:27.507Z,95.79
2017-01-10T10:20:31.729Z,95.79
2017-01-10T10:21:35.029Z,95.5
2017-01-10T10:22:41.218Z,95.5
2017-01-10T10:23:45.438Z,95.5
2017-01-10T10:24:49.647Z,95.5
2017-01-10T10:25:55.804Z,95.69
2017-01-10T10:27:01.978Z,95.6
2017-01-10T10:28:07.181Z,95.69
2017-01-10T10:29:13.341Z,95.98
2017-01-10T10:30:17.568Z,95.79
2017-01-10T10:31:21.803Z,95.5
2017-01-10T10:32:27.023Z,95.98
2017-01-10T10:33:33.202Z,96.17
2017-01-10T10:34:39.394Z,95.41
2017-01-10T10:35:45.574Z,95.98
2017-01-10T10:36:49.798Z,95.79
2017-01-10T10:37:55.939Z,95.98
2017-01-10T10:39:02.109Z,96.55
2017-01-10T10:40:08.279Z,96.26
2017-01-10T10:41:14.445Z,96.36
2017-01-10T10:42:20.647Z,96.17
2017-01-10T10:43:26.825Z,96.26
2017-01-10T10:44:31.057Z,96.17
2017-01-10T10:45:37.232Z,96.64
2017-01-10T10:46:43.401Z,96.45
2017-01-10T10:47:48.595Z,96.26
2017-01-10T10:48:53.802Z,96.17
2017-01-10T10:49:59.965Z,96.17
2017-01-10T10:51:06.146Z,96.55
2017-01-10T10:52:12.346Z,95.88
2017-01-10T10:53:18.520Z,95.5
2017-01-10T10:54:24.683Z,95.84
2017-01-10T10:55:28.924Z,95.55
2017-01-10T10:56:35.092Z,95.27
2017-01-10T10:57:41.307Z,95.36
2017-01-10T10:58:46.488Z,95.65
2017-01-10T10:59:50.723Z,94.79
2017-01-10T11:00:56.891Z,95.07
2017-01-10T11:02:03.093Z,94.98
2017-01-10T11:03:09.233Z,94.89
2017-01-10T11:04:15.401Z,94.32
2017-01-10T11:05:20.687Z,94.7
2017-01-10T11:06:26.370Z,94.13
2017-01-10T11:07:29.605Z,94.18
2017-01-10T11:08:33.867Z,93.7
2017-01-10T11:09:40.041Z,93.8
2017-01-10T11:10:45.245Z,93.41
2017-01-10T11:11:50.444Z,93.04
2017-01-10T11:12:55.624Z,92.56
2017-01-10T11:14:00.826Z,92.47
2017-01-10T11:15:05.998Z,92.14
2017-01-10T11:16:11.189Z,92.18
2017-01-10T11:17:17.431Z,92.71
2017-01-10T11:18:23.559Z,92.99
2017-01-10T11:19:27.761Z,92.71
2017-01-10T11:20:32.961Z,92.94
2017-01-10T11:21:38.169Z,92.94
2017-01-10T11:22:44.336Z,92.47
2017-01-10T11:23:50.516Z,92.47
2017-01-10T11:24:56.675Z,92.18
2017-01-10T11:26:02.912Z,92.56
2017-01-10T11:27:08.090Z,91.99
2017-01-10T11:28:14.269Z,92.28
2017-01-10T11:29:20.428Z,92.28
2017-01-10T11:30:26.611Z,92.37
2017-01-10T11:31:32.789Z,92.47
2017-01-10T11:32:38.954Z,92.37
2017-01-10T11:33:45.122Z,92.37
2017-01-10T11:34:50.484Z,91.52
2017-01-10T11:35:55.679Z,91.52
2017-01-10T11:37:01.932Z,91.42
2017-01-10T11:38:08.102Z,91.42
2017-01-10T11:39:14.273Z,91.71
2017-01-10T11:40:19.479Z,91.71
2017-01-10T11:41:25.653Z,91.52
2017-01-10T11:42:31.817Z,91.33
2017-01-10T11:43:37.012Z,91.52
2017-01-10T11:44:42.225Z,91.42
2017-01-10T11:45:48.392Z,91.33
2017-01-10T11:46:51.650Z,91.52
2017-01-10T11:47:55.849Z,91.42
2017-01-10T11:49:02.019Z,91.33
2017-01-10T11:50:08.240Z,90.85
2017-01-10T11:51:14.424Z,90.85
2017-01-10T11:52:20.602Z,90.47
2017-01-10T11:53:26.786Z,90.28
2017-01-10T11:54:32.956Z,90.76
2017-01-10T11:55:37.204Z,90.38
2017-01-10T11:56:42.468Z,90.28
2017-01-10T11:57:48.597Z,90.19
2017-01-10T11:58:54.765Z,90.85
2017-01-10T11:59:59.959Z,90.47
2017-01-10T12:01:06.130Z,90.47
2017-01-10T12:02:12.305Z,90.47
2017-01-10T12:03:16.512Z,90.57
2017-01-10T12:04:21.714Z,90.66
2017-01-10T12:05:27.885Z,89.9
2017-01-10T12:06:34.137Z,90.09
2017-01-10T12:07:39.336Z,90.09
2017-01-10T12:08:45.552Z,89.72
2017-01-10T12:09:51.733Z,89.9
2017-01-10T12:10:57.486Z,89.72
2017-01-10T12:12:03.735Z,89.62
2017-01-10T12:13:09.910Z,89.43
2017-01-10T12:14:15.091Z,89.72
2017-01-10T12:15:21.256Z,89.43
2017-01-10T12:16:26.467Z,89.62
2017-01-10T12:17:32.650Z,89.62
2017-01-10T12:18:36.886Z,89.28
2017-01-10T12:19:43.067Z,89.19
2017-01-10T12:20:46.324Z,89.28
2017-01-10T12:21:52.502Z,88.81
2017-01-10T12:22:58.675Z,88.2
2017-01-10T12:24:04.892Z,87.91
2017-01-10T12:25:11.063Z,87.82
2017-01-10T12:26:17.263Z,88.57
2017-01-10T12:27:22.460Z,88.48
2017-01-10T12:28:28.646Z,88.2
2017-01-10T12:29:33.848Z,88.39
2017-01-10T12:30:40.057Z,87.91
2017-01-10T12:31:45.208Z,88.48
2017-01-10T12:32:51.490Z,88.95
2017-01-10T12:33:56.682Z,88.67
2017-01-10T12:35:02.844Z,88.86
2017-01-10T12:36:08.040Z,89.05
2017-01-10T12:37:13.246Z,88.1
2017-01-10T12:38:19.413Z,88.2
2017-01-10T12:39:24.656Z,88.57
2017-01-10T12:40:30.833Z,88.1
2017-01-10T12:41:37.006Z,87.91
2017-01-10T12:42:43.170Z,87.91
2017-01-10T12:43:49.334Z,88.2
2017-01-10T12:44:54.543Z,88.1
2017-01-10T12:46:00.717Z,87.82
2017-01-10T12:47:06.893Z,87.91
2017-01-10T12:48:12.086Z,87.82
2017-01-10T12:49:18.285Z,87.62
2017-01-10T12:50:24.481Z,87.53
2017-01-10T12:51:30.658Z,87.82
2017-01-10T12:52:35.839Z,87.82
2017-01-10T12:53:42.010Z,87.53
2017-01-10T12:54:48.197Z,87.53
2017-01-10T12:55:54.364Z,87.05
2017-01-10T12:56:59.545Z,86.96
2017-01-10T12:58:04.748Z,87.24
2017-01-10T12:59:10.930Z,86.96
2017-01-10T13:00:17.097Z,87.24
2017-01-10T13:01:23.279Z,86.58
2017-01-10T13:02:29.444Z,86.3
2017-01-10T13:03:35.609Z,86.58
2017-01-10T13:04:41.778Z,86.49
2017-01-10T13:05:46.013Z,86.01
2017-01-10T13:06:52.211Z,86.58
2017-01-10T13:07:58.382Z,86.58
2017-01-10T13:09:04.540Z,86.77
2017-01-10T13:10:10.707Z,86.96
2017-01-10T13:11:15.887Z,86.49
2017-01-10T13:12:22.055Z,86.3
2017-01-10T13:13:27.300Z,86.58
2017-01-10T13:14:33.432Z,86.49
2017-01-10T13:15:39.600Z,86.68
2017-01-10T13:16:44.810Z,86.49
2017-01-10T13:17:51.034Z,86.96
2017-01-10T13:18:56.197Z,87.24
2017-01-10T13:20:00.432Z,87.15
2017-01-10T13:21:06.601Z,87.15
2017-01-10T13:22:11.797Z,87.43
2017-01-10T13:23:17.970Z,86.96
2017-01-10T13:24:24.141Z,86.49
2017-01-10T13:25:30.310Z,86.49
2017-01-10T13:26:36.477Z,86.01
2017-01-10T13:27:41.650Z,85.91
2017-01-10T13:28:46.820Z,86.3
2017-01-10T13:29:52.020Z,86.01
2017-01-10T13:30:57.242Z,86.3
2017-01-10T13:32:03.507Z,85.72
2017-01-10T13:33:07.812Z,85.91
2017-01-10T13:34:13.979Z,85.91
2017-01-10T13:35:19.191Z,86.11
2017-01-10T13:36:25.356Z,86.11
2017-01-10T13:37:30.557Z,86.49
2017-01-10T13:38:35.766Z,86.49
2017-01-10T13:39:40.018Z,86.58
2017-01-10T13:40:46.175Z,86.49
2017-01-10T13:41:51.382Z,86.3
2017-01-10T13:42:57.552Z,85.96
2017-01-10T13:44:03.730Z,86.05
2017-01-10T13:45:09.897Z,86.01
2017-01-10T13:46:15.195Z,85.91
2017-01-10T13:47:21.419Z,86.39
2017-01-10T13:48:27.544Z,86.68
2017-01-10T13:49:32.794Z,86.11
2017-01-10T13:50:38.005Z,86.11
2017-01-10T13:51:44.185Z,86.39
2017-01-10T13:52:50.353Z,85.72
2017-01-10T13:53:56.524Z,86.2
2017-01-10T13:55:01.724Z,86.58
2017-01-10T13:56:06.907Z,86.49
2017-01-10T13:57:13.081Z,85.91
2017-01-10T13:58:18.285Z,85.16
2017-01-10T13:59:24.458Z,85.91
2017-01-10T14:00:28.685Z,85.35
2017-01-10T14:01:34.854Z,85.91
2017-01-10T14:02:41.033Z,85.63
2017-01-10T14:03:47.197Z,85.16
2017-01-10T14:04:51.444Z,84.87
2017-01-10T14:05:56.669Z,86.01
2017-01-10T14:07:02.829Z,85.44
2017-01-10T14:08:09.000Z,85.44
2017-01-10T14:09:15.206Z,86.01
2017-01-10T14:10:20.412Z,85.63